Airport ICAO


07:28 UTC

14°C

Few clouds


An affordable passengers' Moving Map for your aircraft. Made for the iPad and the iPhone
More information here

EGKB Biggin Hill


Biggin Hill UNITED KINGDOM   VFR


METAR EGKB 200720Z 23007KT 200V260 9999 FEW030 14/12 Q1020 0h08min

TAF EGKB 200552Z 2006/2015 22008KT 9999 SCT040 1h36min





NOTAMS

OPEN